CST,Max TemperatureF,Mean TemperatureF,Min TemperatureF,Max Dew PointF,MeanDew PointF,Min DewpointF,Max Humidity, Mean Humidity, Min Humidity, Max Sea Level PressureIn, Mean Sea Level PressureIn, Min Sea Level PressureIn, Max VisibilityMiles, Mean VisibilityMiles, Min VisibilityMiles, Max Wind SpeedMPH, Mean Wind SpeedMPH, Max Gust SpeedMPH,PrecipitationIn, CloudCover, Events, WindDirDegrees
2013-12-1,66,54,41,51,47,41,100,84,54,30.24,30.13,29.99,10,10,9,7,3,,0.00,3,,34
2013-12-2,70,57,44,55,52,44,100,83,55,29.97,29.86,29.78,10,10,6,10,2,18,0.00,3,,188
2013-12-3,79,67,55,66,61,55,100,90,58,29.88,29.81,29.76,10,6,0,17,5,24,0.00,5,Fog,193
2013-12-4,77,67,57,73,67,58,100,99,84,29.99,29.93,29.85,10,4,0,21,5,25,0.32,7,Fog-Rain,173
2013-12-5,78,74,71,74,72,70,100,97,84,30.08,30.00,29.95,10,5,0,18,9,25,0.05,8,Fog-Rain,190
2013-12-6,78,70,60,73,71,59,100,95,76,30.13,30.02,29.97,10,7,4,16,13,23,0.00,8,Rain,188
2013-12-7,60,53,46,60,48,44,100,98,89,30.25,30.19,30.10,10,8,1,12,8,20,0.00,8,Rain,356
2013-12-8,75,60,46,72,61,47,100,96,76,30.19,30.11,30.03,10,5,0,21,7,28,0.00,7,Fog-Rain,133
2013-12-9,73,67,61,73,68,61,100,97,81,30.12,30.06,30.00,10,6,0,13,7,,0.08,7,Fog-Rain,221
2013-12-10,66,52,37,67,51,34,100,93,68,30.31,30.15,29.99,10,6,0,16,6,29,0.02,5,Fog-Rain,329
2013-12-11,63,48,34,46,39,32,97,72,50,30.35,30.30,30.26,10,10,7,7,5,,0.00,4,,11
2013-12-12,57,46,35,43,32,21,79,59,24,30.45,30.37,30.33,10,10,10,10,7,18,0.00,3,,2
2013-12-13,57,44,30,45,33,24,79,61,39,30.32,30.20,30.03,10,10,10,9,5,,0.00,6,,62
2013-12-14,73,64,54,71,65,48,100,94,80,29.99,29.88,29.81,10,8,1,18,10,28,0.23,7,Rain,201
2013-12-15,57,46,34,57,40,32,100,83,59,30.25,30.11,29.92,10,10,6,18,12,29,0.00,6,Rain,341
2013-12-16,60,45,30,43,35,31,100,78,35,30.30,30.26,30.22,10,9,5,7,4,,0.00,0,,341
2013-12-17,64,47,30,48,38,31,100,75,29,30.31,30.24,30.18,10,10,9,8,3,,0.00,1,,300
2013-12-18,64,52,41,48,38,31,93,66,28,30.35,30.27,30.24,10,10,10,7,5,,0.00,0,,14
2013-12-19,66,52,39,52,43,30,86,69,51,30.26,30.18,30.10,10,10,10,10,6,,0.00,3,,107
2013-12-20,73,62,52,64,58,48,93,84,68,30.14,30.07,30.00,10,8,3,16,7,,0.00,6,,123
2013-12-21,78,72,66,70,68,64,93,86,74,30.00,29.93,29.86,9,6,2,25,14,33,0.00,8,Rain,158
2013-12-22,75,65,54,71,62,51,94,89,84,30.06,29.96,29.85,10,6,1,24,16,36,0.09,8,Rain-Thunderstorm,305
2013-12-23,55,47,39,52,45,30,90,83,67,30.36,30.20,30.04,10,9,2,14,7,25,0.25,8,Rain,343
2013-12-24,53,42,32,31,27,24,82,64,37,30.45,30.37,30.32,10,10,8,12,7,22,0.00,1,,355
2013-12-25,52,40,28,33,27,21,76,60,35,30.37,30.31,30.25,10,10,10,7,5,,0.00,0,,5
2013-12-26,55,46,37,37,35,32,79,66,45,30.31,30.27,30.22,10,10,10,10,7,17,0.00,5,,180
2013-12-27,60,50,41,37,35,32,73,55,39,30.35,30.29,30.25,10,10,10,10,6,,0.00,5,,28
2013-12-28,53,50,46,52,47,37,100,93,57,30.25,30.05,29.87,10,5,1,15,8,21,1.20,8,Rain-Thunderstorm,43
2013-12-29,54,48,42,47,44,39,100,88,75,30.09,30.00,29.88,10,8,2,14,8,17,0.00,6,,332
2013-12-30,57,46,36,48,41,34,93,86,62,30.24,30.15,30.09,10,6,0,6,1,,0.00,5,Fog,340
2013-12-31,51,48,44,45,40,37,86,79,74,30.38,30.31,30.25,10,9,7,12,6,,0.00,7,Rain,358